createdAt,value
2022-09-25T00:00:00.009Z,0.38
2022-09-25T00:02:28.261Z,1.02
2022-09-25T00:04:56.583Z,0.75
2022-09-25T00:07:25.026Z,0.30
2022-09-25T00:09:53.216Z,1.38
2022-09-25T00:12:22.974Z,0.45
2022-09-25T00:14:53.874Z,0.60
2022-09-25T00:17:26.206Z,0.50
2022-09-25T00:19:53.674Z,0.38
2022-09-25T00:22:24.923Z,0.68
2022-09-25T00:24:53.764Z,0.65
2022-09-25T00:27:23.528Z,0.50
2022-09-25T00:29:51.741Z,0.50
2022-09-25T00:32:20.079Z,1.05
2022-09-25T00:34:48.270Z,0.95
2022-09-25T00:37:16.468Z,1.17
2022-09-25T00:39:44.818Z,0.20
2022-09-25T00:42:14.404Z,0.70
2022-09-25T00:44:56.831Z,3.38
2022-09-25T00:47:43.548Z,1.17
2022-09-25T00:50:21.793Z,1.15
2022-09-25T00:52:54.659Z,0.45
2022-09-25T00:55:24.133Z,1.10
2022-09-25T00:57:55.449Z,0.40
2022-09-25T01:00:27.100Z,2.20
2022-09-25T01:02:56.298Z,0.52
2022-09-25T01:05:29.942Z,0.30
2022-09-25T01:08:00.426Z,1.15
2022-09-25T01:10:29.268Z,0.57
2022-09-25T01:12:58.348Z,0.77
2022-09-25T01:15:33.336Z,0.98
2022-09-25T01:18:09.673Z,0.30
2022-09-25T01:20:51.346Z,0.63
2022-09-25T01:23:31.966Z,0.82
2022-09-25T01:26:14.919Z,0.30
2022-09-25T01:28:55.703Z,1.65
2022-09-25T01:31:29.208Z,0.30
2022-09-25T01:34:05.553Z,0.38
2022-09-25T01:36:37.249Z,0.40
2022-09-25T01:39:11.431Z,2.05
2022-09-25T01:41:47.650Z,0.30
2022-09-25T01:44:22.624Z,0.30
2022-09-25T01:46:52.684Z,0.52
2022-09-25T01:49:27.966Z,0.20
2022-09-25T01:51:57.700Z,0.22
2022-09-25T01:54:31.373Z,0.30
2022-09-25T01:57:03.912Z,1.33
2022-09-25T01:59:37.678Z,1.80
2022-09-25T02:02:08.293Z,0.80
2022-09-25T02:04:40.365Z,1.67
2022-09-25T02:07:13.355Z,0.32
2022-09-25T02:09:46.467Z,0.30
2022-09-25T02:12:20.812Z,0.32
2022-09-25T02:14:53.991Z,1.25
2022-09-25T02:17:38.616Z,0.00
2022-09-25T02:20:24.960Z,0.65
2022-09-25T02:22:54.053Z,0.43
2022-09-25T02:25:28.368Z,0.57
2022-09-25T02:27:56.562Z,0.47
2022-09-25T02:30:27.046Z,2.25
2022-09-25T02:32:58.236Z,0.40
2022-09-25T02:35:26.926Z,0.32
2022-09-25T02:37:57.209Z,0.43
2022-09-25T02:40:32.223Z,1.17
2022-09-25T02:43:06.983Z,0.22
2022-09-25T02:45:41.439Z,0.40
2022-09-25T02:48:15.977Z,0.75
2022-09-25T02:50:49.333Z,1.92
2022-09-25T02:55:51.179Z,0.30
2022-09-25T02:58:22.995Z,0.85
2022-09-25T03:00:54.888Z,2.00
2022-09-25T03:03:25.042Z,0.38
2022-09-25T03:05:56.571Z,0.52
2022-09-25T03:08:41.801Z,0.77
2022-09-25T03:11:12.664Z,1.05
2022-09-25T03:13:41.690Z,2.03
2022-09-25T03:16:14.355Z,1.40
2022-09-25T03:18:44.591Z,0.77
2022-09-25T03:21:13.002Z,0.40
2022-09-25T03:23:42.605Z,0.40
2022-09-25T03:26:11.680Z,0.28
2022-09-25T03:28:40.138Z,0.80
2022-09-25T03:31:10.744Z,0.52
2022-09-25T03:33:44.706Z,1.10
2022-09-25T03:36:14.890Z,0.57
2022-09-25T03:38:48.481Z,0.70
2022-09-25T03:41:21.448Z,0.65
2022-09-25T03:43:52.030Z,0.40
2022-09-25T03:46:22.568Z,1.00
2022-09-25T03:48:52.413Z,1.02
2022-09-25T03:51:23.386Z,0.22
2022-09-25T03:53:51.938Z,1.10
2022-09-25T03:56:21.381Z,0.50
2022-09-25T03:58:52.234Z,1.05
2022-09-25T04:01:22.037Z,0.70
2022-09-25T04:03:55.014Z,0.82
2022-09-25T04:06:24.752Z,1.02
2022-09-25T04:08:53.822Z,0.30
2022-09-25T04:11:24.551Z,0.73
2022-09-25T04:13:53.016Z,1.15
2022-09-25T04:16:22.194Z,0.93
2022-09-25T04:18:54.798Z,0.47
2022-09-25T04:21:23.023Z,0.57
2022-09-25T04:24:05.187Z,0.60
2022-09-25T04:26:33.705Z,0.30
2022-09-25T04:29:02.227Z,0.65
2022-09-25T04:31:31.050Z,1.27
2022-09-25T04:34:02.234Z,0.90
2022-09-25T04:36:30.421Z,3.85
2022-09-25T04:38:59.875Z,1.40
2022-09-25T04:41:28.059Z,0.88
2022-09-25T04:43:56.299Z,0.85
2022-09-25T04:46:26.764Z,0.40
2022-09-25T04:48:54.968Z,0.32
2022-09-25T04:51:24.668Z,2.33
2022-09-25T04:53:53.027Z,1.73
2022-09-25T04:56:23.038Z,0.77
2022-09-25T04:58:52.333Z,0.70
2022-09-25T05:01:22.128Z,0.52
2022-09-25T05:03:54.153Z,0.75
2022-09-25T05:06:24.379Z,0.43
2022-09-25T05:08:55.204Z,2.15
2022-09-25T05:11:24.968Z,0.30
2022-09-25T05:13:53.397Z,0.55
2022-09-25T05:16:21.836Z,0.88
2022-09-25T05:18:50.337Z,0.20
2022-09-25T05:21:19.521Z,0.88
2022-09-25T05:23:51.527Z,1.15
2022-09-25T05:26:23.353Z,0.63
2022-09-25T05:28:52.518Z,1.30
2022-09-25T05:31:21.939Z,0.57
2022-09-25T05:33:51.499Z,0.70
2022-09-25T05:36:19.960Z,0.70
2022-09-25T05:38:49.578Z,0.65
2022-09-25T05:41:18.020Z,1.38
2022-09-25T05:43:50.939Z,0.28
2022-09-25T05:46:19.209Z,0.73
2022-09-25T05:48:47.542Z,0.52
2022-09-25T05:51:15.905Z,1.65
2022-09-25T05:53:44.125Z,0.43
2022-09-25T05:56:13.776Z,1.38
2022-09-25T05:58:42.771Z,2.08
2022-09-25T06:01:12.300Z,0.68
2022-09-25T06:03:40.648Z,1.08
2022-09-25T06:06:12.052Z,0.75
2022-09-25T06:08:44.827Z,1.15
2022-09-25T06:11:14.594Z,1.98
2022-09-25T06:13:48.554Z,0.82
2022-09-25T06:16:20.309Z,1.20
2022-09-25T06:18:48.632Z,1.25
2022-09-25T06:21:16.848Z,0.93
2022-09-25T06:23:47.045Z,3.65
2022-09-25T06:26:16.630Z,1.38
2022-09-25T06:28:44.809Z,2.72
2022-09-25T06:31:15.688Z,4.28
2022-09-25T06:33:47.419Z,2.85
2022-09-25T06:36:15.803Z,2.90
2022-09-25T06:38:44.013Z,3.13
2022-09-25T06:41:12.284Z,2.42
2022-09-25T06:43:43.510Z,1.40
2022-09-25T06:46:11.742Z,1.50
2022-09-25T06:48:43.081Z,4.15
2022-09-25T06:51:11.323Z,2.40
2022-09-25T06:53:39.640Z,1.80
2022-09-25T06:56:08.100Z,3.08
2022-09-25T06:58:36.318Z,1.90
2022-09-25T07:01:10.477Z,1.65
2022-09-25T07:03:47.674Z,2.28
2022-09-25T07:06:17.665Z,3.25
2022-09-25T07:08:46.415Z,3.25
2022-09-25T07:11:16.399Z,5.30
2022-09-25T07:13:45.168Z,6.20
2022-09-25T07:16:16.187Z,7.43
2022-09-25T07:18:45.109Z,6.68
2022-09-25T07:21:14.850Z,7.00
2022-09-25T07:23:43.290Z,6.28
2022-09-25T07:26:13.517Z,6.57
2022-09-25T07:28:42.786Z,11.27
2022-09-25T07:31:17.668Z,9.15
2022-09-25T07:33:47.809Z,4.68
2022-09-25T07:36:18.728Z,3.95
2022-09-25T07:38:50.646Z,6.13
2022-09-25T07:41:20.279Z,4.50
2022-09-25T07:43:48.488Z,5.35
2022-09-25T07:46:18.153Z,3.50
2022-09-25T07:48:49.426Z,5.65
2022-09-25T07:51:17.759Z,5.88
2022-09-25T07:53:46.096Z,4.72
2022-09-25T07:56:14.438Z,4.15
2022-09-25T07:58:42.812Z,2.63
2022-09-25T08:01:14.451Z,4.38
2022-09-25T08:03:46.197Z,3.20
2022-09-25T08:06:14.964Z,2.85
2022-09-25T08:08:44.252Z,3.65
2022-09-25T08:11:14.337Z,3.03
2022-09-25T08:13:44.578Z,6.60
2022-09-25T08:16:14.962Z,5.30
2022-09-25T08:18:46.459Z,2.78
2022-09-25T08:21:16.114Z,3.78
2022-09-25T08:23:48.004Z,3.13
2022-09-25T08:26:16.899Z,2.50
2022-09-25T08:28:46.550Z,4.97
2022-09-25T08:31:15.522Z,3.17
2022-09-25T08:33:50.812Z,2.13
2022-09-25T08:36:23.359Z,19.90
2022-09-25T08:38:56.379Z,2.78
2022-09-25T08:41:28.931Z,1.92
2022-09-25T08:44:01.368Z,5.97
2022-09-25T08:46:55.315Z,1.10
2022-09-25T08:49:29.623Z,1.67
2022-09-25T08:52:01.925Z,2.88
2022-09-25T08:54:32.505Z,4.37
2022-09-25T08:57:03.596Z,1.75
2022-09-25T08:59:35.974Z,1.90
2022-09-25T09:02:10.946Z,2.63
2022-09-25T09:04:46.892Z,1.85
2022-09-25T09:07:26.686Z,1.88
2022-09-25T09:10:06.602Z,3.30
2022-09-25T09:12:40.066Z,3.85
2022-09-25T09:15:33.528Z,2.90
2022-09-25T09:18:07.100Z,1.50
2022-09-25T09:20:42.743Z,2.20
2022-09-25T09:23:16.520Z,3.03
2022-09-25T09:25:55.144Z,3.08
2022-09-25T09:28:49.250Z,3.03
2022-09-25T09:31:24.908Z,4.65
2022-09-25T09:33:59.811Z,4.25
2022-09-25T09:36:39.839Z,1.73
2022-09-25T09:39:15.397Z,2.60
2022-09-25T09:41:54.721Z,5.85
2022-09-25T09:44:33.733Z,3.50
2022-09-25T09:47:09.600Z,3.97
2022-09-25T09:49:40.423Z,4.75
2022-09-25T09:52:14.715Z,4.80
2022-09-25T09:54:49.693Z,4.10
2022-09-25T09:57:22.151Z,3.10
2022-09-25T09:59:53.264Z,3.70
2022-09-25T10:02:31.726Z,2.85
2022-09-25T10:05:03.876Z,3.13
2022-09-25T10:07:38.101Z,3.30
2022-09-25T10:10:13.948Z,2.30
2022-09-25T10:12:46.367Z,3.97
2022-09-25T10:15:19.993Z,2.30
2022-09-25T10:17:48.597Z,2.75
2022-09-25T10:20:21.293Z,3.10
2022-09-25T10:22:56.646Z,2.40
2022-09-25T10:25:37.462Z,2.28
2022-09-25T10:28:28.510Z,4.43
2022-09-25T10:30:59.327Z,6.13
2022-09-25T10:33:29.212Z,2.25
2022-09-25T10:35:57.989Z,3.58
2022-09-25T10:38:36.362Z,4.10
2022-09-25T10:41:07.789Z,3.72
2022-09-25T10:43:36.295Z,3.20
2022-09-25T10:46:16.395Z,3.28
2022-09-25T10:49:02.105Z,2.75
2022-09-25T10:51:32.492Z,2.08
2022-09-25T10:54:14.333Z,2.42
2022-09-25T10:56:43.093Z,1.75
2022-09-25T10:59:16.303Z,2.00
2022-09-25T11:01:45.435Z,3.13
2022-09-25T11:04:17.242Z,3.15
2022-09-25T11:06:47.836Z,3.42
2022-09-25T11:09:19.986Z,3.10
2022-09-25T11:11:49.523Z,2.10
2022-09-25T11:14:34.197Z,2.15
2022-09-25T11:17:06.056Z,2.38
2022-09-25T11:19:35.865Z,6.28
2022-09-25T11:22:14.270Z,3.00
2022-09-25T11:25:01.283Z,2.55
2022-09-25T11:27:34.447Z,4.03
2022-09-25T11:30:08.196Z,2.15
2022-09-25T11:32:43.363Z,3.95
2022-09-25T11:35:24.647Z,2.60
2022-09-25T11:38:02.669Z,3.80
2022-09-25T11:40:57.896Z,4.43
2022-09-25T11:43:40.263Z,4.78
2022-09-25T11:46:24.445Z,4.32
2022-09-25T11:49:12.315Z,3.63
2022-09-25T11:52:08.138Z,4.18
2022-09-25T11:54:43.877Z,5.38
2022-09-25T11:57:17.044Z,2.25
2022-09-25T11:59:58.032Z,3.17
2022-09-25T12:02:32.741Z,4.82
2022-09-25T12:05:22.872Z,3.78
2022-09-25T12:08:05.687Z,3.95
2022-09-25T12:10:43.775Z,3.97
2022-09-25T12:13:20.958Z,3.47
2022-09-25T12:16:07.597Z,5.30
2022-09-25T12:18:57.302Z,4.38
2022-09-25T12:21:34.051Z,3.53
2022-09-25T12:24:09.865Z,3.80
2022-09-25T12:26:43.923Z,3.65
2022-09-25T12:29:26.239Z,3.83
2022-09-25T12:32:04.573Z,8.15
2022-09-25T12:34:50.924Z,4.75
2022-09-25T12:37:27.741Z,4.80
2022-09-25T12:39:59.489Z,5.18
2022-09-25T12:42:41.360Z,3.22
2022-09-25T12:45:16.176Z,4.32
2022-09-25T12:47:48.705Z,3.97
2022-09-25T12:50:23.377Z,3.65
2022-09-25T12:52:55.145Z,3.17
2022-09-25T12:55:26.791Z,3.40
2022-09-25T12:58:04.480Z,6.85
2022-09-25T13:00:35.470Z,2.85
2022-09-25T13:03:11.625Z,4.03
2022-09-25T13:05:45.564Z,3.55
2022-09-25T13:08:19.418Z,2.92
2022-09-25T13:10:56.091Z,3.85
2022-09-25T13:13:27.004Z,4.07
2022-09-25T13:16:01.032Z,3.25
2022-09-25T13:18:34.129Z,2.38
2022-09-25T13:21:24.298Z,2.58
2022-09-25T13:23:54.441Z,2.95
2022-09-25T13:26:25.382Z,2.42
2022-09-25T13:28:57.747Z,2.97
2022-09-25T13:31:29.260Z,2.20
2022-09-25T13:34:06.531Z,2.47
2022-09-25T13:36:39.437Z,4.43
2022-09-25T13:39:33.951Z,4.78
2022-09-25T13:42:06.785Z,3.28
2022-09-25T13:45:14.331Z,3.88
2022-09-25T13:47:55.560Z,3.40
2022-09-25T13:50:32.525Z,3.60
2022-09-25T13:53:26.790Z,3.55
2022-09-25T13:56:19.780Z,4.32
2022-09-25T13:59:24.663Z,3.40
2022-09-25T14:01:56.120Z,5.28
2022-09-25T14:04:31.056Z,2.95
2022-09-25T14:07:08.951Z,6.78
2022-09-25T14:09:38.819Z,3.45
2022-09-25T14:12:12.332Z,3.38
2022-09-25T14:14:53.316Z,4.38
2022-09-25T14:17:23.410Z,4.18
2022-09-25T14:19:55.006Z,4.07
2022-09-25T14:22:30.395Z,6.35
2022-09-25T14:24:59.055Z,4.38
2022-09-25T14:27:29.310Z,6.00
2022-09-25T14:30:09.000Z,5.80
2022-09-25T14:32:55.696Z,9.05
2022-09-25T14:35:39.353Z,4.85
2022-09-25T14:38:36.976Z,6.38
2022-09-25T14:41:31.878Z,7.43
2022-09-25T14:44:25.786Z,5.53
2022-09-25T14:46:55.153Z,3.47
2022-09-25T14:49:26.751Z,3.95
2022-09-25T14:52:07.635Z,7.43
2022-09-25T14:54:46.282Z,7.57
2022-09-25T14:57:19.056Z,8.80
2022-09-25T14:59:52.207Z,7.45
2022-09-25T15:02:24.130Z,10.02
2022-09-25T15:04:52.640Z,6.18
2022-09-25T15:07:28.014Z,9.45
2022-09-25T15:10:01.290Z,6.68
2022-09-25T15:12:34.158Z,6.65
2022-09-25T15:15:08.260Z,7.93
2022-09-25T15:17:49.694Z,7.05
2022-09-25T15:20:20.878Z,7.78
2022-09-25T15:22:55.934Z,5.50
2022-09-25T15:25:27.539Z,7.80
2022-09-25T15:27:57.419Z,9.30
2022-09-25T15:30:27.467Z,11.48
2022-09-25T15:33:00.669Z,7.82
2022-09-25T15:35:30.942Z,6.00
2022-09-25T15:38:06.446Z,7.57
2022-09-25T15:40:35.067Z,7.40
2022-09-25T15:43:03.465Z,8.20
2022-09-25T15:45:46.612Z,9.48
2022-09-25T15:48:25.119Z,7.63
2022-09-25T15:50:54.019Z,8.07
2022-09-25T15:53:27.839Z,10.52
2022-09-25T15:56:05.787Z,13.95
2022-09-25T15:58:44.498Z,18.23
2022-09-25T16:01:32.290Z,7.22
2022-09-25T16:04:18.298Z,6.05
2022-09-25T16:06:46.966Z,8.57
2022-09-25T16:09:32.400Z,5.03
2022-09-25T16:12:13.610Z,4.82
2022-09-25T16:14:41.856Z,4.63
2022-09-25T16:17:17.439Z,4.97
2022-09-25T16:19:45.974Z,3.35
2022-09-25T16:22:22.103Z,3.90
2022-09-25T16:24:53.047Z,5.65
2022-09-25T16:27:28.214Z,5.20
2022-09-25T16:30:04.020Z,6.32
2022-09-25T16:32:33.452Z,4.72
2022-09-25T16:35:03.769Z,3.80
2022-09-25T16:37:35.228Z,4.93
2022-09-25T16:40:25.042Z,5.63
2022-09-25T16:42:55.031Z,3.97
2022-09-25T16:45:27.867Z,5.35
2022-09-25T16:47:58.586Z,5.28
2022-09-25T16:50:30.657Z,11.23
2022-09-25T16:52:59.046Z,4.82
2022-09-25T16:55:30.339Z,4.43
2022-09-25T16:58:03.512Z,3.67
2022-09-25T17:00:32.020Z,3.70
2022-09-25T17:03:00.506Z,5.05
2022-09-25T17:05:30.723Z,8.23
2022-09-25T17:08:01.555Z,8.13
2022-09-25T17:10:34.386Z,6.55
2022-09-25T17:13:03.276Z,9.23
2022-09-25T17:15:34.747Z,8.23
2022-09-25T17:18:03.383Z,7.65
2022-09-25T17:20:32.181Z,9.15
2022-09-25T17:23:01.475Z,11.45
2022-09-25T17:25:40.405Z,9.85
2022-09-25T17:28:12.359Z,11.52
2022-09-25T17:30:44.507Z,10.18
2022-09-25T17:33:18.070Z,10.13
2022-09-25T17:35:48.322Z,10.27
2022-09-25T17:38:17.575Z,12.15
2022-09-25T17:40:48.955Z,6.70
2022-09-25T17:43:17.356Z,6.82
2022-09-25T17:45:50.202Z,9.45
2022-09-25T17:48:24.324Z,8.25
2022-09-25T17:50:53.860Z,11.93
2022-09-25T17:53:23.854Z,11.88
2022-09-25T17:55:55.498Z,10.32
2022-09-25T17:58:24.884Z,9.02
2022-09-25T18:00:55.736Z,11.63
2022-09-25T18:03:24.549Z,9.02
2022-09-25T18:05:53.437Z,10.38
2022-09-25T18:08:21.923Z,9.32
2022-09-25T18:10:52.609Z,9.73
2022-09-25T18:13:23.927Z,9.85
2022-09-25T18:15:55.348Z,10.45
2022-09-25T18:18:24.108Z,8.02
2022-09-25T18:21:10.007Z,11.35
2022-09-25T18:23:39.226Z,12.38
2022-09-25T18:26:08.839Z,14.40
2022-09-25T18:28:38.458Z,14.57
2022-09-25T18:31:07.830Z,10.98
2022-09-25T18:33:37.800Z,10.30
2022-09-25T18:36:06.445Z,8.57
2022-09-25T18:38:34.852Z,11.18
2022-09-25T18:41:03.514Z,10.93
2022-09-25T18:43:33.693Z,12.57
2022-09-25T18:46:04.700Z,13.73
2022-09-25T18:48:33.021Z,10.55
2022-09-25T18:51:03.180Z,10.07
2022-09-25T18:53:33.050Z,10.77
2022-09-25T18:56:01.499Z,14.02
2022-09-25T18:58:30.679Z,12.10
2022-09-25T19:00:59.431Z,12.65
2022-09-25T19:03:30.356Z,12.55
2022-09-25T19:06:00.142Z,10.40
2022-09-25T19:08:29.648Z,11.65
2022-09-25T19:10:59.485Z,13.60
2022-09-25T19:13:28.579Z,12.30
2022-09-25T19:15:59.015Z,12.98
2022-09-25T19:18:28.524Z,10.77
2022-09-25T19:20:58.316Z,12.88
2022-09-25T19:23:27.418Z,17.98
2022-09-25T19:25:56.729Z,11.55
2022-09-25T19:28:25.042Z,13.15
2022-09-25T19:31:03.485Z,11.85
2022-09-25T19:33:34.048Z,14.23
2022-09-25T19:36:06.651Z,10.57
2022-09-25T19:38:37.637Z,10.93
2022-09-25T19:41:11.036Z,13.07
2022-09-25T19:43:40.462Z,11.30
2022-09-25T19:46:08.742Z,11.60
2022-09-25T19:48:37.107Z,16.33
2022-09-25T19:51:09.734Z,14.30
2022-09-25T19:53:42.966Z,15.05
2022-09-25T19:58:41.333Z,12.68
2022-09-25T20:01:14.506Z,14.05
2022-09-25T20:03:45.579Z,19.17
2022-09-25T20:06:18.289Z,15.38
2022-09-25T20:08:46.627Z,12.52
2022-09-25T20:11:18.728Z,15.55
2022-09-25T20:13:48.459Z,13.23
2022-09-25T20:16:18.403Z,14.15
2022-09-25T20:18:49.222Z,11.88
2022-09-25T20:21:21.590Z,13.10
2022-09-25T20:23:51.171Z,15.32
2022-09-25T20:26:24.879Z,12.77
2022-09-25T20:28:57.093Z,13.27
2022-09-25T20:31:26.093Z,12.70
2022-09-25T20:33:54.765Z,13.55
2022-09-25T20:36:24.866Z,9.27
2022-09-25T20:38:53.662Z,15.43
2022-09-25T20:41:23.766Z,11.07
2022-09-25T20:43:53.048Z,9.60
2022-09-25T20:46:22.294Z,15.73
2022-09-25T20:48:51.767Z,13.43
2022-09-25T20:51:21.243Z,8.75
2022-09-25T20:53:56.223Z,13.15
2022-09-25T20:56:28.542Z,12.27
2022-09-25T20:58:57.577Z,12.93
2022-09-25T21:01:27.459Z,13.43
2022-09-25T21:03:56.563Z,13.05
2022-09-25T21:06:26.931Z,14.00
2022-09-25T21:08:59.043Z,11.43
2022-09-25T21:11:27.960Z,11.23
2022-09-25T21:13:58.214Z,15.05
2022-09-25T21:16:28.327Z,12.90
2022-09-25T21:18:58.204Z,12.77
2022-09-25T21:21:28.039Z,12.35
2022-09-25T21:23:58.831Z,11.25
2022-09-25T21:26:28.838Z,11.20
2022-09-25T21:28:59.109Z,11.48
2022-09-25T21:31:29.812Z,15.80
2022-09-25T21:33:59.281Z,13.02
2022-09-25T21:36:28.858Z,13.93
2022-09-25T21:38:58.613Z,14.73
2022-09-25T21:41:30.110Z,11.65
2022-09-25T21:44:03.755Z,14.55
2022-09-25T21:46:34.759Z,12.05
2022-09-25T21:49:05.267Z,15.23
2022-09-25T21:51:35.634Z,13.45
2022-09-25T21:54:07.698Z,15.30
2022-09-25T21:56:36.158Z,15.40
2022-09-25T21:59:09.784Z,14.40
2022-09-25T22:01:39.663Z,15.85
2022-09-25T22:04:09.711Z,12.98
2022-09-25T22:06:39.880Z,16.00
2022-09-25T22:09:14.091Z,12.23
2022-09-25T22:11:42.919Z,12.25
2022-09-25T22:14:16.372Z,15.90
2022-09-25T22:16:46.301Z,15.50
2022-09-25T22:19:18.663Z,17.45
2022-09-25T22:21:48.761Z,15.35
2022-09-25T22:24:18.862Z,15.65
2022-09-25T22:26:48.593Z,16.23
2022-09-25T22:29:17.365Z,12.40
2022-09-25T22:31:48.629Z,11.90
2022-09-25T22:34:21.488Z,15.07
2022-09-25T22:36:58.695Z,16.05
2022-09-25T22:39:30.281Z,13.65
2022-09-25T22:41:59.052Z,15.38
2022-09-25T22:44:27.361Z,16.52
2022-09-25T22:46:55.628Z,14.00
2022-09-25T22:49:24.100Z,13.18
2022-09-25T22:51:55.879Z,14.32
2022-09-25T22:54:24.492Z,12.32
2022-09-25T22:56:54.412Z,17.50
2022-09-25T22:59:22.680Z,13.55
2022-09-25T23:01:52.775Z,13.70
2022-09-25T23:04:22.634Z,13.93
2022-09-25T23:06:51.306Z,14.07
2022-09-25T23:09:21.509Z,15.65
2022-09-25T23:11:49.923Z,14.18
2022-09-25T23:14:21.261Z,13.75
2022-09-25T23:16:51.185Z,11.07
2022-09-25T23:19:20.534Z,13.68
2022-09-25T23:21:49.278Z,15.23
2022-09-25T23:24:19.385Z,13.70
2022-09-25T23:26:48.074Z,16.52
2022-09-25T23:29:19.163Z,12.20
2022-09-25T23:31:49.292Z,12.60
2022-09-25T23:34:19.315Z,15.45
2022-09-25T23:36:47.817Z,19.08
2022-09-25T23:39:18.308Z,16.98
2022-09-25T23:41:46.851Z,12.55
2022-09-25T23:44:15.092Z,13.52
2022-09-25T23:46:44.510Z,11.98
2022-09-25T23:49:14.474Z,10.90
2022-09-25T23:51:42.793Z,11.73
2022-09-25T23:54:12.293Z,14.20
2022-09-25T23:56:41.326Z,14.38
2022-09-25T23:59:12.515Z,11.07
